Time;durP1;ratioP1;P1;durP2;ratioP2;P2;SDS_P1;SDS_P2;PMS_P1;PMS_P2;Temp;Humidity;BMP_temperature;BMP_pressure;BME280_temperature;BME280_humidity;BME280_pressure;Samples;Min_cycle;Max_cycle;Signal;HPM_P1;HPM_P2
2023/11/20 00:02:12;;;;;;;2.13;2.03;;;;;;;;;;5053319;28;20202;-78
2023/11/20 00:04:39;;;;;;;2.30;2.20;;;;;;;;;;5053476;28;20254;-78
2023/11/20 00:07:06;;;;;;;2.13;1.93;;;;;;;;;;5054042;28;20208;-78
2023/11/20 00:09:33;;;;;;;2.13;2.00;;;;;;;;;;5053664;28;20251;-78
2023/11/20 00:12:00;;;;;;;2.53;2.13;;;;;;;;;;5053855;28;20271;-78
2023/11/20 00:14:27;;;;;;;11.73;9.00;;;;;;;;;;5053111;28;20209;-78
2023/11/20 00:16:54;;;;;;;13.60;8.43;;;;;;;;;;5053920;28;20221;-78
2023/11/20 00:19:22;;;;;;;5.40;4.30;;;;;;;;;;5053431;28;20209;-78
2023/11/20 00:21:49;;;;;;;3.57;3.27;;;;;;;;;;5053828;28;20198;-78
2023/11/20 00:24:16;;;;;;;3.17;2.87;;;;;;;;;;5040222;28;20218;-78
2023/11/20 00:26:43;;;;;;;3.83;2.10;;;;;;;;;;5053695;28;20206;-78
2023/11/20 00:29:09;;;;;;;6.53;4.93;;;;;;;;;;5053598;28;20224;-78
2023/11/20 00:31:36;;;;;;;6.17;5.43;;;;;;;;;;5054292;28;20210;-79
2023/11/20 00:34:03;;;;;;;4.40;3.57;;;;;;;;;;5054090;28;20218;-78
2023/11/20 00:36:31;;;;;;;226.17;66.40;;;;;;;;;;5053276;28;20650;-78
2023/11/20 00:38:58;;;;;;;64.20;25.70;;;;;;;;;;5050033;28;20682;-78
2023/11/20 00:41:25;;;;;;;6.40;4.90;;;;;;;;;;5043885;28;20198;-78
2023/11/20 00:43:52;;;;;;;3.40;3.10;;;;;;;;;;5053599;28;20643;-78
2023/11/20 00:46:19;;;;;;;3.43;2.97;;;;;;;;;;5053393;28;20209;-78
2023/11/20 00:48:45;;;;;;;1.90;1.77;;;;;;;;;;5053358;28;20198;-78
2023/11/20 00:51:13;;;;;;;2.23;1.73;;;;;;;;;;5052969;28;20198;-78
2023/11/20 00:53:42;;;;;;;12.33;7.80;;;;;;;;;;5052685;28;20775;-78
2023/11/20 00:56:09;;;;;;;3.50;3.20;;;;;;;;;;5053480;28;20267;-78
2023/11/20 00:58:36;;;;;;;4.93;2.87;;;;;;;;;;5053206;28;20197;-78
2023/11/20 01:01:04;;;;;;;2.70;2.37;;;;;;;;;;5053167;28;20217;-78
2023/11/20 01:03:32;;;;;;;2.23;2.03;;;;;;;;;;5053306;28;20210;-78
2023/11/20 01:06:00;;;;;;;1.80;1.70;;;;;;;;;;5053085;28;20684;-78
2023/11/20 01:08:26;;;;;;;2.27;1.63;;;;;;;;;;5052434;28;20226;-78
2023/11/20 01:10:54;;;;;;;1.70;1.60;;;;;;;;;;5052823;28;20206;-78
2023/11/20 01:13:21;;;;;;;1.50;1.40;;;;;;;;;;5051585;28;20232;-78
2023/11/20 01:15:48;;;;;;;1.40;1.30;;;;;;;;;;5053480;28;20591;-78
2023/11/20 01:18:15;;;;;;;1.57;1.47;;;;;;;;;;5052578;28;20198;-78
2023/11/20 01:20:44;;;;;;;1.80;1.53;;;;;;;;;;5052894;28;20202;-79
2023/11/20 01:23:11;;;;;;;1.47;1.37;;;;;;;;;;5052481;28;20201;-78
2023/11/20 01:25:38;;;;;;;1.37;1.27;;;;;;;;;;5052261;28;20209;-79
2023/11/20 01:28:06;;;;;;;1.60;1.50;;;;;;;;;;5052604;28;20206;-78
2023/11/20 01:30:33;;;;;;;1.30;1.20;;;;;;;;;;5052466;28;20598;-78
2023/11/20 01:33:00;;;;;;;1.20;1.20;;;;;;;;;;5052623;28;20226;-78
2023/11/20 01:35:27;;;;;;;1.50;1.40;;;;;;;;;;5052294;28;20234;-78
2023/11/20 01:37:54;;;;;;;1.50;1.40;;;;;;;;;;5052661;28;20209;-78
2023/11/20 01:40:21;;;;;;;1.40;1.30;;;;;;;;;;5052202;28;20233;-77
2023/11/20 01:42:47;;;;;;;6.00;4.93;;;;;;;;;;5052831;28;20565;-78
2023/11/20 01:45:16;;;;;;;1.87;1.77;;;;;;;;;;5051579;28;20202;-78
2023/11/20 01:47:43;;;;;;;4.20;1.90;;;;;;;;;;5052616;28;20567;-77
2023/11/20 01:50:12;;;;;;;2.47;2.17;;;;;;;;;;5050075;28;20231;-77
2023/11/20 01:52:41;;;;;;;1.17;1.10;;;;;;;;;;5041397;28;20317;-78
2023/11/20 01:55:10;;;;;;;7.20;4.00;;;;;;;;;;5052498;28;20201;-78
2023/11/20 01:57:38;;;;;;;5.83;4.10;;;;;;;;;;5052133;28;20201;-78
2023/11/20 02:00:09;;;;;;;6.93;4.70;;;;;;;;;;5051961;28;20202;-77
2023/11/20 02:02:38;;;;;;;19.90;13.50;;;;;;;;;;5052272;28;20284;-77
2023/11/20 02:05:08;;;;;;;3.23;2.93;;;;;;;;;;5046893;28;20207;-77
2023/11/20 02:07:36;;;;;;;7.90;5.23;;;;;;;;;;5044431;28;20238;-77
2023/11/20 02:10:04;;;;;;;5.03;3.90;;;;;;;;;;5051748;28;20208;-77
2023/11/20 02:12:31;;;;;;;1.73;1.63;;;;;;;;;;5051500;28;20214;-77
2023/11/20 02:14:58;;;;;;;4.67;3.43;;;;;;;;;;5051451;28;20206;-77
2023/11/20 02:17:24;;;;;;;5.27;3.03;;;;;;;;;;5051642;28;20206;-77
2023/11/20 02:19:52;;;;;;;3.33;2.93;;;;;;;;;;5051671;28;20193;-77
2023/11/20 02:22:19;;;;;;;4.43;3.23;;;;;;;;;;5051661;28;20206;-77
2023/11/20 02:24:47;;;;;;;14.27;11.70;;;;;;;;;;5050648;28;20212;-77
2023/11/20 02:27:28;;;;;;;8.43;7.40;;;;;;;;;;5051570;28;20198;-77
2023/11/20 02:29:56;;;;;;;4.60;4.20;;;;;;;;;;5050971;28;20707;-77
2023/11/20 02:32:23;;;;;;;4.93;4.53;;;;;;;;;;5051417;28;20205;-77
2023/11/20 02:34:51;;;;;;;3.10;2.67;;;;;;;;;;5051228;28;20653;-77
2023/11/20 02:37:18;;;;;;;2.27;2.17;;;;;;;;;;5051575;28;20212;-77
2023/11/20 02:39:48;;;;;;;3.63;3.27;;;;;;;;;;5051249;28;20652;-77
2023/11/20 02:42:15;;;;;;;3.20;2.90;;;;;;;;;;5050980;28;20275;-77
2023/11/20 02:44:43;;;;;;;2.87;2.67;;;;;;;;;;5051232;28;20197;-77
2023/11/20 02:47:11;;;;;;;1.53;1.43;;;;;;;;;;5050683;28;20735;-76
2023/11/20 02:49:40;;;;;;;1.50;1.40;;;;;;;;;;5051084;28;20216;-77
2023/11/20 02:52:07;;;;;;;1.30;1.20;;;;;;;;;;5050832;28;20198;-79
2023/11/20 02:54:35;;;;;;;1.60;1.50;;;;;;;;;;5050408;28;20264;-77
2023/11/20 02:57:02;;;;;;;2.67;2.00;;;;;;;;;;5050932;28;20209;-76
2023/11/20 02:59:29;;;;;;;2.23;1.43;;;;;;;;;;5051182;28;20592;-76
2023/11/20 03:01:56;;;;;;;2.97;2.20;;;;;;;;;;5050593;28;20198;-76
2023/11/20 03:04:24;;;;;;;3.20;2.60;;;;;;;;;;5050653;28;20631;-77
2023/11/20 03:06:51;;;;;;;2.80;2.43;;;;;;;;;;5050657;28;20202;-77
2023/11/20 03:09:18;;;;;;;2.00;1.60;;;;;;;;;;5050873;28;20202;-76
2023/11/20 03:11:45;;;;;;;1.77;1.67;;;;;;;;;;5050885;28;20225;-76
2023/11/20 03:14:12;;;;;;;3.17;2.17;;;;;;;;;;5050238;28;20666;-78
2023/11/20 03:16:39;;;;;;;1.40;1.30;;;;;;;;;;5050861;28;20719;-76
2023/11/20 03:19:06;;;;;;;1.30;1.20;;;;;;;;;;5050587;28;20201;-77
2023/11/20 03:21:36;;;;;;;1.60;1.50;;;;;;;;;;5050523;28;20221;-76
2023/11/20 03:24:05;;;;;;;1.83;1.60;;;;;;;;;;5050348;28;20206;-77
2023/11/20 03:26:31;;;;;;;4.47;2.03;;;;;;;;;;5050523;28;20289;-77
2023/11/20 03:28:58;;;;;;;2.33;2.00;;;;;;;;;;5050459;28;20216;-76
2023/11/20 03:31:25;;;;;;;1.80;1.63;;;;;;;;;;5050682;28;20209;-77
2023/11/20 03:33:52;;;;;;;1.67;1.57;;;;;;;;;;5049961;28;20230;-77
2023/11/20 03:36:27;;;;;;;1.63;1.43;;;;;;;;;;5050777;28;20254;-77
2023/11/20 03:38:55;;;;;;;1.13;1.10;;;;;;;;;;5049534;28;20198;-77
2023/11/20 03:41:22;;;;;;;2.03;1.57;;;;;;;;;;5050479;28;20635;-77
2023/11/20 03:43:49;;;;;;;3.07;1.33;;;;;;;;;;5050115;28;20719;-77
2023/11/20 03:46:16;;;;;;;1.30;1.20;;;;;;;;;;5050831;28;20205;-77
2023/11/20 03:48:42;;;;;;;1.67;1.27;;;;;;;;;;5049559;28;20231;-77
2023/11/20 03:51:09;;;;;;;1.10;1.10;;;;;;;;;;5049982;28;20213;-77
2023/11/20 03:53:36;;;;;;;1.30;1.30;;;;;;;;;;5049675;28;20226;-76
2023/11/20 03:56:05;;;;;;;7.17;4.23;;;;;;;;;;5050488;28;20205;-76
2023/11/20 03:58:32;;;;;;;6.03;3.23;;;;;;;;;;5049354;28;20205;-77
2023/11/20 04:00:59;;;;;;;2.73;1.60;;;;;;;;;;5050451;28;20285;-76
2023/11/20 04:03:26;;;;;;;5.73;3.50;;;;;;;;;;5050198;28;20212;-76
2023/11/20 04:05:53;;;;;;;4.23;2.33;;;;;;;;;;5050028;28;20206;-76
2023/11/20 04:08:20;;;;;;;2.00;1.80;;;;;;;;;;5049697;28;20247;-76
2023/11/20 04:10:46;;;;;;;1.40;1.23;;;;;;;;;;5050040;28;20209;-76
2023/11/20 04:13:15;;;;;;;3.60;1.43;;;;;;;;;;5050008;28;20606;-76
2023/11/20 04:15:41;;;;;;;1.40;1.30;;;;;;;;;;5049424;28;20198;-76
2023/11/20 04:18:08;;;;;;;1.13;1.13;;;;;;;;;;5049244;28;20206;-77
2023/11/20 04:20:35;;;;;;;7.83;6.97;;;;;;;;;;5050110;28;20202;-76
2023/11/20 04:23:03;;;;;;;6.00;5.50;;;;;;;;;;5050022;28;20205;-76
2023/11/20 04:25:30;;;;;;;51.10;22.77;;;;;;;;;;5049683;28;20680;-76
2023/11/20 04:27:56;;;;;;;210.33;93.80;;;;;;;;;;5049796;28;20205;-76
2023/11/20 04:30:25;;;;;;;58.20;29.10;;;;;;;;;;5049811;28;20707;-76
2023/11/20 04:32:51;;;;;;;47.37;19.77;;;;;;;;;;5050124;28;20573;-76
2023/11/20 04:35:18;;;;;;;12.50;7.20;;;;;;;;;;5049798;28;20229;-76
2023/11/20 04:37:45;;;;;;;15.40;8.83;;;;;;;;;;5049870;28;20197;-76
2023/11/20 04:40:13;;;;;;;6.40;4.93;;;;;;;;;;5049909;28;20212;-77
2023/11/20 04:42:39;;;;;;;7.00;4.50;;;;;;;;;;5050369;28;20202;-77
2023/11/20 04:45:10;;;;;;;5.73;4.20;;;;;;;;;;5042325;28;20218;-79
2023/11/20 04:47:40;;;;;;;5.13;3.70;;;;;;;;;;5049930;28;20202;-79
2023/11/20 04:50:08;;;;;;;2.43;2.20;;;;;;;;;;5045747;28;20199;-80
2023/11/20 04:52:35;;;;;;;5.17;3.80;;;;;;;;;;5051207;28;20259;-81
2023/11/20 04:55:03;;;;;;;6.97;5.70;;;;;;;;;;5053059;28;20226;-83
2023/11/20 04:57:30;;;;;;;8.37;6.33;;;;;;;;;;5053376;28;20198;-82
2023/11/20 05:00:00;;;;;;;3.23;2.43;;;;;;;;;;5053033;28;20202;-82
2023/11/20 05:02:28;;;;;;;2.37;1.80;;;;;;;;;;5052849;28;20205;-81
2023/11/20 05:04:56;;;;;;;4.30;3.43;;;;;;;;;;5041419;28;20754;-81
2023/11/20 05:07:23;;;;;;;1.63;1.47;;;;;;;;;;5051677;28;20623;-82
2023/11/20 05:09:50;;;;;;;1.43;1.20;;;;;;;;;;5053227;28;20206;-81
2023/11/20 05:12:16;;;;;;;1.60;1.50;;;;;;;;;;5036557;28;20237;-81
2023/11/20 05:14:43;;;;;;;2.13;1.60;;;;;;;;;;5041896;28;20300;-81
2023/11/20 05:17:10;;;;;;;1.60;1.50;;;;;;;;;;5039873;28;20206;-81
2023/11/20 05:19:38;;;;;;;1.03;1.03;;;;;;;;;;5053208;28;20210;-80
2023/11/20 05:22:06;;;;;;;1.07;1.00;;;;;;;;;;5039514;28;20757;-81
2023/11/20 05:24:34;;;;;;;4.13;3.30;;;;;;;;;;5052255;28;20202;-81
2023/11/20 05:27:01;;;;;;;5.60;3.33;;;;;;;;;;5039605;28;20202;-82
2023/11/20 05:29:28;;;;;;;3.30;2.90;;;;;;;;;;5042291;28;20217;-79
2023/11/20 05:31:55;;;;;;;2.13;2.00;;;;;;;;;;5046361;28;20211;-81
2023/11/20 05:34:22;;;;;;;1.93;1.77;;;;;;;;;;5050875;28;20648;-79
2023/11/20 05:36:50;;;;;;;2.10;1.80;;;;;;;;;;5052349;28;20716;-79
2023/11/20 05:39:19;;;;;;;1.93;1.77;;;;;;;;;;5052212;28;20610;-80
2023/11/20 05:41:45;;;;;;;2.70;2.00;;;;;;;;;;5053006;28;20263;-79
2023/11/20 05:44:14;;;;;;;1.90;1.23;;;;;;;;;;5038248;28;20280;-80
2023/11/20 05:46:40;;;;;;;1.57;1.40;;;;;;;;;;5051704;28;20281;-80
2023/11/20 05:49:07;;;;;;;1.60;1.50;;;;;;;;;;5039581;28;20201;-79
2023/11/20 05:51:34;;;;;;;1.03;0.93;;;;;;;;;;5052409;28;20573;-80
2023/11/20 05:54:01;;;;;;;1.20;1.10;;;;;;;;;;5051400;28;20230;-80
2023/11/20 05:56:31;;;;;;;1.67;1.57;;;;;;;;;;5051648;28;20276;-79
2023/11/20 05:58:57;;;;;;;2.67;2.33;;;;;;;;;;5051719;28;20296;-80
2023/11/20 06:01:25;;;;;;;1.93;1.83;;;;;;;;;;5051355;28;20621;-80
2023/11/20 06:03:52;;;;;;;1.63;1.53;;;;;;;;;;5051785;28;20205;-79
2023/11/20 06:06:20;;;;;;;1.13;1.13;;;;;;;;;;5038450;28;20215;-80
2023/11/20 06:08:47;;;;;;;1.20;1.10;;;;;;;;;;5051543;28;20234;-80
2023/11/20 06:11:20;;;;;;;1.93;1.63;;;;;;;;;;5051087;28;20626;-80
2023/11/20 06:13:48;;;;;;;2.40;2.13;;;;;;;;;;5051186;28;20279;-79
2023/11/20 06:16:15;;;;;;;3.80;2.90;;;;;;;;;;5051535;28;20198;-80
2023/11/20 06:18:42;;;;;;;1.30;1.20;;;;;;;;;;5040920;28;20222;-80
2023/11/20 06:21:09;;;;;;;1.10;1.10;;;;;;;;;;5048704;28;20206;-80
2023/11/20 06:23:36;;;;;;;2.60;2.00;;;;;;;;;;5051627;28;20230;-80
2023/11/20 06:26:03;;;;;;;3.57;2.40;;;;;;;;;;5051550;28;20194;-79
2023/11/20 06:28:30;;;;;;;6.13;3.73;;;;;;;;;;5051108;28;20283;-79
2023/11/20 06:30:59;;;;;;;8.67;6.03;;;;;;;;;;5051162;28;20202;-79
2023/11/20 06:33:28;;;;;;;5.87;5.27;;;;;;;;;;5051704;28;20570;-79
2023/11/20 06:35:55;;;;;;;4.37;3.97;;;;;;;;;;5051319;28;20715;-79
2023/11/20 06:38:22;;;;;;;3.10;2.80;;;;;;;;;;5050952;28;20248;-79
2023/11/20 06:40:52;;;;;;;2.77;2.27;;;;;;;;;;5050944;28;20209;-79
2023/11/20 06:43:19;;;;;;;3.40;3.03;;;;;;;;;;5051740;28;20202;-79
2023/11/20 06:45:45;;;;;;;2.10;1.90;;;;;;;;;;5050687;28;20205;-79
2023/11/20 06:48:14;;;;;;;1.90;1.70;;;;;;;;;;5051518;28;20226;-80
2023/11/20 06:50:40;;;;;;;2.60;2.40;;;;;;;;;;5050794;28;20216;-80
2023/11/20 06:53:09;;;;;;;1.60;1.50;;;;;;;;;;5051223;28;20280;-79
2023/11/20 06:55:35;;;;;;;1.47;1.37;;;;;;;;;;5051359;28;20275;-79
2023/11/20 06:58:02;;;;;;;2.37;1.50;;;;;;;;;;5051424;28;20201;-79
2023/11/20 07:00:29;;;;;;;1.50;1.40;;;;;;;;;;5050764;28;20209;-79
2023/11/20 07:02:56;;;;;;;1.70;1.60;;;;;;;;;;5050682;28;20323;-79
2023/11/20 07:05:24;;;;;;;6.03;5.03;;;;;;;;;;5051095;28;20205;-79
2023/11/20 07:07:52;;;;;;;7.77;4.97;;;;;;;;;;5050666;28;20202;-79
2023/11/20 07:10:23;;;;;;;10.33;6.50;;;;;;;;;;5050763;28;20239;-79
2023/11/20 07:12:52;;;;;;;17.90;7.10;;;;;;;;;;5050398;28;20288;-79
2023/11/20 07:15:19;;;;;;;22.83;14.33;;;;;;;;;;5050730;28;20257;-79
2023/11/20 07:17:47;;;;;;;13.00;9.50;;;;;;;;;;5050522;28;20680;-79
2023/11/20 07:20:14;;;;;;;10.57;4.40;;;;;;;;;;5050705;28;20202;-79
2023/11/20 07:22:42;;;;;;;27.93;17.47;;;;;;;;;;5050440;28;20308;-79
2023/11/20 07:25:09;;;;;;;39.37;24.90;;;;;;;;;;5051028;28;20211;-79
2023/11/20 07:27:36;;;;;;;19.77;14.97;;;;;;;;;;5050284;28;20668;-79
2023/11/20 07:30:07;;;;;;;8.70;6.57;;;;;;;;;;5050292;28;20202;-79
2023/11/20 07:32:35;;;;;;;5.43;4.80;;;;;;;;;;5049779;28;20237;-79
2023/11/20 07:35:03;;;;;;;4.43;3.40;;;;;;;;;;5050391;28;20325;-79
2023/11/20 07:37:30;;;;;;;4.43;2.97;;;;;;;;;;5050270;28;20263;-79
2023/11/20 07:40:00;;;;;;;6.40;3.07;;;;;;;;;;5050624;28;20207;-79
2023/11/20 07:42:27;;;;;;;3.93;2.17;;;;;;;;;;5050662;28;20288;-79
2023/11/20 07:44:54;;;;;;;4.10;3.40;;;;;;;;;;5050174;28;20629;-79
2023/11/20 07:47:21;;;;;;;3.17;2.23;;;;;;;;;;5050519;28;20275;-79
2023/11/20 07:49:48;;;;;;;1.50;1.40;;;;;;;;;;5050541;28;20293;-79
2023/11/20 07:52:14;;;;;;;1.40;1.30;;;;;;;;;;5050322;28;20669;-79
2023/11/20 07:54:41;;;;;;;3.57;2.03;;;;;;;;;;5050352;28;20235;-79
2023/11/20 07:57:11;;;;;;;5.73;2.43;;;;;;;;;;5050594;28;20202;-78
2023/11/20 07:59:41;;;;;;;2.00;1.80;;;;;;;;;;5050312;28;20209;-79
2023/11/20 08:02:09;;;;;;;2.67;2.13;;;;;;;;;;5025443;28;20206;-79
2023/11/20 08:04:36;;;;;;;2.67;1.70;;;;;;;;;;5049740;28;20216;-79
2023/11/20 08:07:03;;;;;;;1.90;1.30;;;;;;;;;;5050294;28;20210;-79
2023/11/20 08:09:30;;;;;;;2.33;1.40;;;;;;;;;;5049922;28;20256;-79
2023/11/20 08:11:57;;;;;;;1.20;1.20;;;;;;;;;;5049499;28;20213;-79
2023/11/20 08:14:24;;;;;;;1.27;1.17;;;;;;;;;;5049537;28;20321;-79
2023/11/20 08:16:54;;;;;;;1.67;1.20;;;;;;;;;;5050327;28;20204;-78
2023/11/20 08:19:22;;;;;;;1.00;0.97;;;;;;;;;;5049690;28;20669;-79
2023/11/20 08:21:49;;;;;;;1.00;1.00;;;;;;;;;;5049927;28;20289;-79
2023/11/20 08:24:16;;;;;;;0.90;0.90;;;;;;;;;;5052583;28;20221;-78
2023/11/20 08:26:44;;;;;;;0.83;0.83;;;;;;;;;;5054472;28;20217;-79
2023/11/20 08:29:11;;;;;;;1.00;1.00;;;;;;;;;;5053393;28;20608;-78
2023/11/20 08:31:42;;;;;;;0.87;0.87;;;;;;;;;;5053987;28;20225;-78
2023/11/20 08:34:08;;;;;;;1.00;1.00;;;;;;;;;;5053044;28;20198;-78
2023/11/20 08:36:35;;;;;;;2.47;1.30;;;;;;;;;;5053504;28;20236;-78
2023/11/20 08:39:05;;;;;;;4.90;1.70;;;;;;;;;;5053091;28;20198;-78
2023/11/20 08:41:32;;;;;;;1.23;1.07;;;;;;;;;;5053839;28;20263;-78
2023/11/20 08:43:59;;;;;;;1.93;1.30;;;;;;;;;;5052784;28;20225;-78
2023/11/20 08:46:27;;;;;;;1.37;0.90;;;;;;;;;;5053700;28;20202;-78
2023/11/20 08:48:55;;;;;;;0.80;0.80;;;;;;;;;;5052875;28;20213;-78
2023/11/20 08:51:22;;;;;;;1.10;1.00;;;;;;;;;;5053890;28;20212;-78
2023/11/20 08:53:49;;;;;;;0.83;0.83;;;;;;;;;;5053282;28;20202;-78
2023/11/20 08:56:15;;;;;;;0.70;0.70;;;;;;;;;;5053406;28;20241;-78
2023/11/20 08:58:42;;;;;;;0.77;0.77;;;;;;;;;;5053013;28;20256;-78
2023/11/20 09:01:09;;;;;;;0.80;0.80;;;;;;;;;;5053710;28;20203;-78
2023/11/20 09:03:36;;;;;;;1.13;0.70;;;;;;;;;;5052844;28;20584;-78
2023/11/20 09:06:08;;;;;;;3.70;1.27;;;;;;;;;;5053592;28;20203;-78
2023/11/20 09:08:34;;;;;;;3.83;3.03;;;;;;;;;;5039493;28;20672;-78
2023/11/20 09:11:02;;;;;;;3.77;2.33;;;;;;;;;;5053345;28;20592;-78
2023/11/20 09:13:29;;;;;;;1.63;1.33;;;;;;;;;;5053095;28;20194;-78
2023/11/20 09:15:56;;;;;;;2.13;1.57;;;;;;;;;;5052693;28;20238;-79
2023/11/20 09:18:24;;;;;;;1.30;0.90;;;;;;;;;;5053210;28;20590;-78
2023/11/20 09:20:51;;;;;;;1.00;1.00;;;;;;;;;;5052796;28;20278;-78
2023/11/20 09:23:20;;;;;;;0.87;0.87;;;;;;;;;;5052860;28;20213;-78
2023/11/20 09:25:46;;;;;;;6.67;1.60;;;;;;;;;;5052848;28;20674;-77
2023/11/20 09:28:15;;;;;;;1.10;1.10;;;;;;;;;;5052477;28;20595;-80
2023/11/20 09:30:41;;;;;;;2.17;1.63;;;;;;;;;;5052944;28;20208;-78
2023/11/20 09:33:08;;;;;;;1.33;1.23;;;;;;;;;;5052487;28;20233;-78
2023/11/20 09:35:36;;;;;;;5.10;2.07;;;;;;;;;;5051401;28;20238;-77
2023/11/20 09:38:04;;;;;;;0.93;0.93;;;;;;;;;;5052849;28;20202;-78
2023/11/20 09:40:33;;;;;;;2.27;2.07;;;;;;;;;;5052623;28;20216;-78
2023/11/20 09:43:01;;;;;;;2.97;2.23;;;;;;;;;;5052554;28;20318;-78
2023/11/20 09:45:28;;;;;;;1.50;1.10;;;;;;;;;;5051821;28;20215;-78
2023/11/20 09:47:56;;;;;;;1.53;1.40;;;;;;;;;;5052001;28;20215;-78
2023/11/20 09:50:23;;;;;;;1.30;0.93;;;;;;;;;;5052430;28;20205;-78
2023/11/20 09:52:50;;;;;;;1.47;1.37;;;;;;;;;;5052025;28;20236;-78
2023/11/20 09:55:18;;;;;;;1.07;1.03;;;;;;;;;;5052380;28;20667;-78
2023/11/20 09:57:46;;;;;;;0.93;0.90;;;;;;;;;;5051933;28;20225;-80
2023/11/20 10:00:17;;;;;;;0.60;0.60;;;;;;;;;;5051908;28;20197;-78
2023/11/20 10:02:45;;;;;;;0.80;0.80;;;;;;;;;;5040196;28;20346;-77
2023/11/20 10:05:12;;;;;;;1.43;1.27;;;;;;;;;;5051446;28;20278;-78
2023/11/20 10:07:40;;;;;;;1.33;1.00;;;;;;;;;;5051807;28;20646;-77
2023/11/20 10:10:08;;;;;;;0.90;0.90;;;;;;;;;;5051480;28;20684;-77
2023/11/20 10:12:35;;;;;;;0.70;0.70;;;;;;;;;;5052269;28;20725;-78
2023/11/20 10:15:06;;;;;;;0.73;0.73;;;;;;;;;;5051610;28;20234;-78
2023/11/20 10:17:34;;;;;;;0.80;0.80;;;;;;;;;;5051365;28;20202;-78
2023/11/20 10:20:01;;;;;;;2.70;1.87;;;;;;;;;;5051552;28;20202;-78
2023/11/20 10:22:34;;;;;;;2.33;1.53;;;;;;;;;;5051917;28;20286;-78
2023/11/20 10:25:08;;;;;;;1.13;1.03;;;;;;;;;;5051625;28;20268;-78
2023/11/20 10:27:35;;;;;;;0.70;0.70;;;;;;;;;;5051351;28;20194;-78
2023/11/20 10:30:09;;;;;;;1.40;1.10;;;;;;;;;;5051121;28;20201;-77
2023/11/20 10:32:36;;;;;;;2.20;1.10;;;;;;;;;;5051279;28;20233;-77
2023/11/20 10:35:17;;;;;;;0.87;0.70;;;;;;;;;;5051285;28;20229;-78
2023/11/20 10:37:53;;;;;;;0.60;0.60;;;;;;;;;;5050876;28;20608;-78
2023/11/20 10:40:20;;;;;;;0.60;0.60;;;;;;;;;;5050841;28;20267;-78
2023/11/20 10:42:48;;;;;;;0.70;0.70;;;;;;;;;;5051690;28;20198;-78
2023/11/20 10:45:16;;;;;;;1.07;1.00;;;;;;;;;;5050548;28;20206;-77
2023/11/20 10:47:45;;;;;;;0.83;0.80;;;;;;;;;;5051329;28;20275;-77
2023/11/20 10:50:15;;;;;;;0.67;0.67;;;;;;;;;;5051099;28;20271;-77
2023/11/20 10:52:42;;;;;;;1.13;0.93;;;;;;;;;;5051575;28;20213;-77
2023/11/20 10:55:11;;;;;;;1.33;1.10;;;;;;;;;;5050265;28;20259;-77
2023/11/20 10:57:41;;;;;;;2.57;1.70;;;;;;;;;;5051085;28;20289;-78
2023/11/20 11:00:11;;;;;;;1.27;1.10;;;;;;;;;;5050545;28;20201;-78
2023/11/20 11:02:39;;;;;;;1.67;1.27;;;;;;;;;;5051102;28;20597;-78
2023/11/20 11:05:09;;;;;;;0.80;0.80;;;;;;;;;;5050090;28;20209;-78
2023/11/20 11:07:39;;;;;;;2.77;1.37;;;;;;;;;;5050716;28;20386;-78
2023/11/20 11:10:10;;;;;;;1.70;1.60;;;;;;;;;;5050939;28;20208;-78
2023/11/20 11:12:41;;;;;;;0.80;0.80;;;;;;;;;;5051304;28;20205;-78
2023/11/20 11:15:12;;;;;;;1.77;1.67;;;;;;;;;;5025565;28;20202;-78
2023/11/20 11:17:45;;;;;;;2.47;1.10;;;;;;;;;;5050725;28;20720;-77
2023/11/20 11:20:14;;;;;;;1.00;1.00;;;;;;;;;;5050482;28;20244;-77
2023/11/20 11:22:43;;;;;;;3.70;1.83;;;;;;;;;;5050849;28;20209;-78
2023/11/20 11:25:12;;;;;;;2.40;1.37;;;;;;;;;;5050386;28;20296;-78
2023/11/20 11:27:46;;;;;;;1.43;1.33;;;;;;;;;;5050563;28;20636;-78
2023/11/20 11:30:16;;;;;;;2.83;2.60;;;;;;;;;;5050563;28;20202;-78
2023/11/20 11:33:05;;;;;;;7.00;1.90;;;;;;;;;;5050443;28;20212;-78
2023/11/20 11:35:47;;;;;;;1.27;1.17;;;;;;;;;;5050150;28;20672;-77
2023/11/20 11:38:22;;;;;;;1.20;1.10;;;;;;;;;;5050683;28;20212;-78
2023/11/20 11:41:01;;;;;;;1.60;1.47;;;;;;;;;;5050672;28;20206;-77
2023/11/20 11:43:33;;;;;;;1.20;1.10;;;;;;;;;;5049889;28;20209;-78
2023/11/20 11:46:03;;;;;;;1.17;1.07;;;;;;;;;;5051048;28;20207;-77
2023/11/20 11:48:35;;;;;;;1.20;1.00;;;;;;;;;;5050129;28;20230;-77
2023/11/20 11:51:03;;;;;;;2.93;1.63;;;;;;;;;;5050877;28;20212;-77
2023/11/20 11:53:30;;;;;;;3.13;1.00;;;;;;;;;;5049755;28;20213;-78
2023/11/20 11:56:00;;;;;;;2.30;1.07;;;;;;;;;;5050407;28;20225;-77
2023/11/20 11:58:27;;;;;;;3.03;2.23;;;;;;;;;;5053505;28;20568;-77
2023/11/20 12:01:16;;;;;;;0.80;0.80;;;;;;;;;;5054506;28;20689;-78
2023/11/20 12:03:45;;;;;;;0.90;0.90;;;;;;;;;;5053839;28;20642;-77
2023/11/20 12:06:15;;;;;;;0.80;0.80;;;;;;;;;;5053969;28;20202;-77
2023/11/20 12:08:41;;;;;;;1.80;1.70;;;;;;;;;;5053802;28;20194;-78
2023/11/20 12:11:10;;;;;;;1.13;1.00;;;;;;;;;;5054190;28;20212;-78
2023/11/20 12:13:38;;;;;;;0.83;0.83;;;;;;;;;;5053926;28;20750;-78
2023/11/20 12:16:07;;;;;;;0.90;0.90;;;;;;;;;;5053584;28;20218;-78
2023/11/20 12:18:36;;;;;;;1.00;0.90;;;;;;;;;;5053961;28;20213;-77
2023/11/20 12:21:08;;;;;;;1.03;0.90;;;;;;;;;;5054002;28;20206;-77
2023/11/20 12:23:35;;;;;;;2.20;1.53;;;;;;;;;;5053924;28;20704;-78
2023/11/20 12:26:03;;;;;;;2.63;1.03;;;;;;;;;;5053651;28;20205;-78
2023/11/20 12:28:32;;;;;;;0.80;0.80;;;;;;;;;;5054060;28;20597;-78
2023/11/20 12:31:03;;;;;;;0.80;0.80;;;;;;;;;;5053572;28;20782;-78
2023/11/20 12:33:30;;;;;;;0.60;0.60;;;;;;;;;;5054273;28;20206;-77
2023/11/20 12:35:59;;;;;;;0.60;0.60;;;;;;;;;;5052931;28;20612;-78
2023/11/20 12:38:29;;;;;;;1.00;0.93;;;;;;;;;;5053471;28;20217;-78
2023/11/20 12:40:56;;;;;;;2.67;0.87;;;;;;;;;;5053630;28;20202;-78
2023/11/20 12:43:24;;;;;;;0.73;0.73;;;;;;;;;;5053149;28;20202;-78
2023/11/20 12:45:52;;;;;;;0.80;0.80;;;;;;;;;;5053301;28;20291;-78
2023/11/20 12:48:19;;;;;;;1.13;1.03;;;;;;;;;;5053760;28;20267;-78
2023/11/20 12:50:47;;;;;;;1.07;0.93;;;;;;;;;;5053586;28;20202;-77
2023/11/20 12:53:16;;;;;;;9.53;1.87;;;;;;;;;;5053159;28;20205;-78
2023/11/20 12:55:45;;;;;;;5.13;1.10;;;;;;;;;;5052796;28;20218;-78
2023/11/20 12:58:12;;;;;;;5.47;3.00;;;;;;;;;;5053308;28;20372;-78
2023/11/20 13:00:40;;;;;;;0.80;0.80;;;;;;;;;;5053158;28;20210;-78
2023/11/20 13:03:07;;;;;;;0.90;0.90;;;;;;;;;;5052693;28;20233;-78
2023/11/20 13:05:33;;;;;;;1.20;1.10;;;;;;;;;;5052655;28;20282;-78
2023/11/20 13:08:02;;;;;;;1.17;1.00;;;;;;;;;;5052220;28;20205;-78
2023/11/20 13:10:31;;;;;;;0.83;0.83;;;;;;;;;;5052725;28;20204;-78
2023/11/20 13:13:11;;;;;;;1.13;1.00;;;;;;;;;;5052875;28;20212;-77
2023/11/20 13:15:38;;;;;;;1.07;0.97;;;;;;;;;;5053442;28;20215;-78
2023/11/20 13:18:07;;;;;;;1.30;1.20;;;;;;;;;;5052193;28;20609;-78
2023/11/20 13:20:42;;;;;;;1.27;1.03;;;;;;;;;;5052928;28;20205;-78
2023/11/20 13:23:20;;;;;;;0.90;0.90;;;;;;;;;;5052746;28;20284;-78
2023/11/20 13:25:49;;;;;;;0.67;0.67;;;;;;;;;;5052563;28;20237;-78
2023/11/20 13:28:20;;;;;;;1.10;0.90;;;;;;;;;;5052727;28;20557;-78
2023/11/20 13:30:59;;;;;;;2.10;1.00;;;;;;;;;;5052807;28;20259;-78
2023/11/20 13:33:28;;;;;;;5.20;1.27;;;;;;;;;;5052667;28;20675;-78
2023/11/20 13:35:58;;;;;;;1.63;1.40;;;;;;;;;;5052396;28;20290;-78
2023/11/20 13:38:25;;;;;;;2.33;1.87;;;;;;;;;;5052573;28;20259;-78
2023/11/20 13:40:54;;;;;;;2.90;2.50;;;;;;;;;;5052292;28;20206;-78
2023/11/20 13:43:22;;;;;;;5.00;2.97;;;;;;;;;;5052870;28;20279;-78
2023/11/20 13:45:51;;;;;;;3.43;2.17;;;;;;;;;;5052008;28;20733;-78
2023/11/20 13:48:18;;;;;;;1.60;1.50;;;;;;;;;;5052377;28;20675;-78
2023/11/20 13:50:45;;;;;;;13.83;2.03;;;;;;;;;;5052203;28;20639;-78
2023/11/20 13:53:13;;;;;;;5.10;2.03;;;;;;;;;;5051949;28;20216;-78
2023/11/20 13:55:44;;;;;;;2.33;1.87;;;;;;;;;;5052561;28;20202;-78
2023/11/20 13:58:12;;;;;;;2.83;1.50;;;;;;;;;;5051385;28;20235;-78
2023/11/20 14:00:41;;;;;;;2.90;1.40;;;;;;;;;;5052324;28;20647;-78
2023/11/20 14:03:07;;;;;;;2.27;1.40;;;;;;;;;;5051723;28;20197;-78
2023/11/20 14:05:35;;;;;;;1.97;1.50;;;;;;;;;;5052512;28;20304;-78
2023/11/20 14:08:04;;;;;;;1.37;1.27;;;;;;;;;;5051306;28;20241;-78
2023/11/20 14:10:32;;;;;;;1.23;1.13;;;;;;;;;;5051934;28;20243;-78
2023/11/20 14:13:01;;;;;;;1.90;0.90;;;;;;;;;;5052034;28;20207;-78
2023/11/20 14:15:28;;;;;;;2.93;0.97;;;;;;;;;;5051892;28;20208;-78
2023/11/20 14:17:57;;;;;;;0.87;0.87;;;;;;;;;;5051696;28;20225;-78
2023/11/20 14:20:24;;;;;;;1.87;1.63;;;;;;;;;;5052228;28;20579;-78
2023/11/20 14:22:53;;;;;;;1.50;1.40;;;;;;;;;;5051575;28;20209;-78
2023/11/20 14:25:19;;;;;;;1.63;1.10;;;;;;;;;;5051606;28;20596;-78
2023/11/20 14:27:46;;;;;;;0.90;0.90;;;;;;;;;;5051070;28;20218;-78
2023/11/20 14:30:14;;;;;;;4.20;1.97;;;;;;;;;;5051625;28;20255;-78
2023/11/20 14:32:43;;;;;;;1.67;1.47;;;;;;;;;;5051858;28;20197;-78
2023/11/20 14:35:11;;;;;;;4.23;2.00;;;;;;;;;;5051023;28;20202;-78
2023/11/20 14:37:42;;;;;;;1.53;1.30;;;;;;;;;;5051133;28;20253;-78
2023/11/20 14:40:11;;;;;;;1.40;1.30;;;;;;;;;;5051401;28;20633;-78
2023/11/20 14:42:41;;;;;;;1.50;1.30;;;;;;;;;;5050973;28;20588;-78
2023/11/20 14:45:10;;;;;;;1.03;1.03;;;;;;;;;;5050459;28;20598;-80
2023/11/20 14:47:42;;;;;;;1.03;1.03;;;;;;;;;;5051731;28;20201;-77